Time;durP1;ratioP1;P1;durP2;ratioP2;P2;SDS_P1;SDS_P2;PMS_P1;PMS_P2;Temp;Humidity;BMP_temperature;BMP_pressure;BME280_temperature;BME280_humidity;BME280_pressure;Samples;Min_cycle;Max_cycle;Signal;HPM_P1;HPM_P2
2021/03/19 00:00:59;;;;;;;10.40;3.72;;;;;;;2.79;100.00;101983.91;5157534;28;20084;-69
2021/03/19 00:03:31;;;;;;;16.48;3.90;;;;;;;2.77;100.00;101991.94;5146278;28;20043;-69
2021/03/19 00:06:01;;;;;;;19.75;4.40;;;;;;;2.84;100.00;101993.28;5155995;28;20478;-68
2021/03/19 00:08:32;;;;;;;26.88;4.88;;;;;;;2.87;100.00;101994.94;5157524;28;20041;-69
2021/03/19 00:11:02;;;;;;;14.65;3.88;;;;;;;2.92;100.00;101995.50;5157451;28;20027;-68
2021/03/19 00:13:33;;;;;;;18.23;3.70;;;;;;;2.88;100.00;102009.03;5157388;28;20026;-69
2021/03/19 00:16:04;;;;;;;17.92;3.60;;;;;;;2.96;100.00;102001.47;5157260;28;20022;-69
2021/03/19 00:18:36;;;;;;;11.93;3.85;;;;;;;2.97;100.00;102009.34;5157257;28;20030;-68
2021/03/19 00:21:06;;;;;;;14.93;3.72;;;;;;;2.94;100.00;102006.00;5157191;28;20505;-68
2021/03/19 00:23:37;;;;;;;9.13;3.78;;;;;;;2.93;100.00;102005.16;5157391;28;20026;-68
2021/03/19 00:26:07;;;;;;;19.17;4.00;;;;;;;2.91;100.00;102008.84;5156064;28;20148;-68
2021/03/19 00:28:38;;;;;;;13.60;3.38;;;;;;;2.84;100.00;102019.78;5156681;28;20027;-68
2021/03/19 00:31:08;;;;;;;8.35;3.22;;;;;;;2.71;100.00;102010.84;5157139;28;20041;-68
2021/03/19 00:33:39;;;;;;;20.15;3.72;;;;;;;2.61;100.00;102014.97;5157146;28;20018;-68
2021/03/19 00:36:09;;;;;;;16.20;3.33;;;;;;;2.55;100.00;102016.13;5157462;28;20038;-68
2021/03/19 00:38:40;;;;;;;24.65;4.15;;;;;;;2.45;100.00;102019.38;5156953;28;20474;-68
2021/03/19 00:41:11;;;;;;;20.20;3.63;;;;;;;2.45;100.00;102014.94;5156654;28;20037;-68
2021/03/19 00:43:41;;;;;;;23.15;3.58;;;;;;;2.32;100.00;102024.53;5157186;28;20340;-68
2021/03/19 00:46:11;;;;;;;10.88;3.10;;;;;;;2.18;100.00;102027.91;5157084;28;20393;-68
2021/03/19 00:48:42;;;;;;;10.60;3.58;;;;;;;2.20;100.00;102025.19;5157117;28;20030;-68
2021/03/19 00:51:13;;;;;;;19.75;4.10;;;;;;;2.14;100.00;102033.47;5156216;28;20022;-69
2021/03/19 00:53:44;;;;;;;12.98;3.60;;;;;;;2.08;100.00;102032.84;5160817;28;20053;-68
2021/03/19 00:56:14;;;;;;;16.67;3.60;;;;;;;2.09;100.00;102031.06;5160247;28;20123;-68
2021/03/19 00:58:45;;;;;;;22.75;4.28;;;;;;;2.06;100.00;102036.53;5160821;28;20018;-68
2021/03/19 01:01:15;;;;;;;13.27;5.25;;;;;;;2.04;100.00;102030.44;5159780;28;20076;-69
2021/03/19 01:03:46;;;;;;;12.50;3.70;;;;;;;1.92;100.00;102033.78;5159734;28;20018;-68
2021/03/19 01:06:16;;;;;;;28.83;4.63;;;;;;;1.85;100.00;102042.94;5160455;28;20027;-68
2021/03/19 01:08:47;;;;;;;11.32;3.45;;;;;;;1.88;100.00;102050.75;5160268;28;20054;-68
2021/03/19 01:11:17;;;;;;;13.63;3.80;;;;;;;1.89;100.00;102049.78;5159730;28;20026;-68
2021/03/19 01:13:48;;;;;;;10.13;3.70;;;;;;;1.87;100.00;102054.31;5160172;28;20087;-68
2021/03/19 01:16:18;;;;;;;9.80;4.35;;;;;;;1.93;100.00;102064.59;5158445;28;20027;-68
2021/03/19 01:18:49;;;;;;;25.65;3.97;;;;;;;2.04;100.00;102048.97;5160366;28;20029;-69
2021/03/19 01:21:19;;;;;;;13.25;3.83;;;;;;;2.12;100.00;102062.69;5159561;28;20390;-68
2021/03/19 01:23:50;;;;;;;24.52;4.10;;;;;;;2.20;100.00;102060.44;5160184;28;20034;-68
2021/03/19 01:26:20;;;;;;;10.70;3.65;;;;;;;2.28;100.00;102058.25;5159617;28;20014;-68
2021/03/19 01:28:51;;;;;;;17.17;3.63;;;;;;;2.20;100.00;102059.59;5159552;28;20030;-69
2021/03/19 01:31:22;;;;;;;16.17;4.10;;;;;;;2.15;100.00;102062.50;5159151;28;20026;-68
2021/03/19 01:33:53;;;;;;;15.82;4.43;;;;;;;2.07;100.00;102062.06;5160358;28;20088;-68
2021/03/19 01:36:23;;;;;;;11.98;4.18;;;;;;;1.92;100.00;102060.22;5159622;28;20022;-69
2021/03/19 01:38:55;;;;;;;10.80;3.97;;;;;;;1.95;100.00;102065.34;5159957;28;20049;-68
2021/03/19 01:41:25;;;;;;;18.30;3.80;;;;;;;1.91;100.00;102063.78;5158662;28;20034;-68
2021/03/19 01:44:15;;;;;;;15.57;4.18;;;;;;;1.87;100.00;102068.41;5159938;28;20034;-69
2021/03/19 01:47:23;;;;;;;12.32;4.40;;;;;;;1.89;100.00;102068.31;5159710;28;20038;-68
2021/03/19 01:50:32;;;;;;;14.68;4.10;;;;;;;1.83;100.00;102069.50;5159003;28;20033;-69
2021/03/19 01:53:40;;;;;;;10.20;3.72;;;;;;;1.76;100.00;102063.69;5160012;28;20030;-68
2021/03/19 01:56:48;;;;;;;16.00;4.15;;;;;;;1.69;100.00;102070.22;5159089;28;20026;-68
2021/03/19 02:00:23;;;;;;;21.17;4.18;;;;;;;1.60;100.00;102069.81;5159623;28;20022;-69
2021/03/19 02:03:31;;;;;;;17.90;4.90;;;;;;;1.58;100.00;102071.72;5141072;28;20059;-68
2021/03/19 02:06:39;;;;;;;14.13;4.63;;;;;;;1.58;100.00;102077.00;5158955;28;20486;-68
2021/03/19 02:09:51;;;;;;;13.57;4.53;;;;;;;1.63;100.00;102072.31;5159375;28;20394;-68
2021/03/19 02:12:59;;;;;;;13.05;4.40;;;;;;;1.51;100.00;102082.59;5158901;28;20062;-68
2021/03/19 02:16:15;;;;;;;18.10;5.00;;;;;;;1.46;100.00;102087.28;5159096;28;20053;-68
2021/03/19 02:19:26;;;;;;;16.25;5.00;;;;;;;1.45;100.00;102093.47;5158732;28;20066;-68
2021/03/19 02:22:54;;;;;;;11.57;4.28;;;;;;;1.53;100.00;102087.81;5158654;28;20046;-69
2021/03/19 02:26:12;;;;;;;15.75;5.03;;;;;;;1.65;100.00;102092.47;5158762;28;20034;-69
2021/03/19 02:29:20;;;;;;;16.35;4.45;;;;;;;1.71;100.00;102088.66;5159385;28;20031;-68
2021/03/19 02:32:12;;;;;;;19.58;5.00;;;;;;;1.63;100.00;102096.13;5158370;28;20030;-68
2021/03/19 02:34:50;;;;;;;14.93;5.13;;;;;;;1.50;100.00;102091.44;5159437;28;20102;-68
2021/03/19 02:37:25;;;;;;;12.63;5.40;;;;;;;1.46;100.00;102091.72;5158930;28;20072;-68
2021/03/19 02:39:56;;;;;;;9.85;4.82;;;;;;;1.43;100.00;102103.28;5159016;28;20087;-68
2021/03/19 02:42:30;;;;;;;16.63;5.47;;;;;;;1.38;100.00;102102.66;5158607;28;20035;-68
2021/03/19 02:45:10;;;;;;;20.13;5.82;;;;;;;1.38;100.00;102100.00;5159089;28;20049;-67
2021/03/19 02:47:41;;;;;;;20.83;4.90;;;;;;;1.32;100.00;102102.13;5158830;28;20032;-68
2021/03/19 02:50:13;;;;;;;13.68;5.80;;;;;;;1.30;100.00;102104.81;5158308;28;20022;-68
2021/03/19 02:52:44;;;;;;;15.13;5.32;;;;;;;1.26;100.00;102103.28;5158858;28;20029;-68
2021/03/19 02:55:17;;;;;;;16.98;5.60;;;;;;;1.19;100.00;102113.28;5159257;28;20026;-68
2021/03/19 02:57:48;;;;;;;18.23;6.00;;;;;;;1.15;100.00;102117.00;5158595;28;20139;-68
2021/03/19 03:00:23;;;;;;;17.42;6.50;;;;;;;1.13;100.00;102110.09;5158227;28;20037;-68
2021/03/19 03:02:54;;;;;;;18.10;5.95;;;;;;;1.11;100.00;102111.97;5150555;28;20106;-68
2021/03/19 03:05:25;;;;;;;17.13;5.85;;;;;;;1.09;100.00;102116.44;5150025;28;20466;-68
2021/03/19 03:07:56;;;;;;;16.40;5.63;;;;;;;1.08;100.00;102117.38;5158803;28;20038;-68
2021/03/19 03:10:29;;;;;;;21.05;6.95;;;;;;;1.04;100.00;102121.94;5226500;28;20117;-68
2021/03/19 03:13:00;;;;;;;18.17;6.35;;;;;;;0.97;100.00;102116.13;5158211;28;20057;-68
2021/03/19 03:15:31;;;;;;;22.38;7.07;;;;;;;0.90;100.00;102127.88;5158159;28;20069;-68
2021/03/19 03:18:03;;;;;;;23.38;7.05;;;;;;;0.93;100.00;102126.91;5159171;28;20498;-68
2021/03/19 03:20:38;;;;;;;18.88;6.53;;;;;;;0.96;100.00;102126.75;5158058;28;20479;-68
2021/03/19 03:23:09;;;;;;;24.98;7.18;;;;;;;0.96;100.00;102130.25;5158498;28;20057;-68
2021/03/19 03:25:39;;;;;;;23.70;7.90;;;;;;;0.98;100.00;102120.47;5158245;28;20042;-68
2021/03/19 03:28:12;;;;;;;15.65;7.10;;;;;;;0.98;100.00;102130.19;5158052;28;20486;-68
2021/03/19 03:30:47;;;;;;;12.88;5.95;;;;;;;1.01;100.00;102136.19;5158172;28;20440;-68
2021/03/19 03:33:18;;;;;;;17.02;6.90;;;;;;;0.97;100.00;102136.41;5158481;28;20440;-68
2021/03/19 03:35:50;;;;;;;19.65;7.93;;;;;;;0.94;100.00;102142.66;5158281;28;20091;-68
2021/03/19 03:38:24;;;;;;;28.23;7.80;;;;;;;0.95;100.00;102146.16;5158131;28;20023;-68
2021/03/19 03:40:59;;;;;;;19.77;7.30;;;;;;;0.97;100.00;102144.31;5158310;28;20023;-68
2021/03/19 03:43:30;;;;;;;16.98;6.85;;;;;;;0.94;100.00;102144.47;5145173;28;20031;-68
2021/03/19 03:46:01;;;;;;;24.40;8.70;;;;;;;0.91;100.00;102148.13;5158278;28;20049;-68
2021/03/19 03:48:33;;;;;;;21.45;6.97;;;;;;;0.93;100.00;102148.03;5157690;28;20482;-68
2021/03/19 03:51:07;;;;;;;20.08;7.50;;;;;;;0.93;100.00;102154.19;5157635;28;20034;-68
2021/03/19 03:53:38;;;;;;;27.67;8.45;;;;;;;0.93;100.00;102154.19;5158417;28;20058;-68
2021/03/19 03:56:11;;;;;;;19.83;7.50;;;;;;;0.94;100.00;102160.31;5158049;28;20030;-68
2021/03/19 03:58:43;;;;;;;24.20;6.97;;;;;;;0.90;100.00;102154.31;5157395;28;20030;-68
2021/03/19 04:01:13;;;;;;;18.30;7.20;;;;;;;0.89;100.00;102157.03;5157523;28;20023;-68
2021/03/19 04:03:44;;;;;;;24.58;8.57;;;;;;;0.87;100.00;102149.19;5145169;28;20038;-68
2021/03/19 04:06:15;;;;;;;17.63;7.55;;;;;;;0.86;100.00;102154.56;5157877;28;20022;-68
2021/03/19 04:08:47;;;;;;;22.70;8.85;;;;;;;0.79;100.00;102159.25;5157606;28;20052;-68
2021/03/19 04:11:19;;;;;;;23.85;7.95;;;;;;;0.78;100.00;102160.19;5156974;28;20026;-68
2021/03/19 04:13:50;;;;;;;15.63;7.70;;;;;;;0.74;100.00;102161.25;5157825;28;20030;-68
2021/03/19 04:16:21;;;;;;;22.88;8.27;;;;;;;0.70;100.00;102167.59;5158321;28;20018;-68
2021/03/19 04:18:51;;;;;;;23.80;8.10;;;;;;;0.63;100.00;102164.38;5157768;28;20437;-68
2021/03/19 04:21:22;;;;;;;18.75;7.72;;;;;;;0.60;100.00;102175.06;5157471;28;20027;-68
2021/03/19 04:23:53;;;;;;;19.88;8.43;;;;;;;0.61;100.00;102174.16;5156972;28;20106;-68
2021/03/19 04:26:25;;;;;;;23.80;9.02;;;;;;;0.58;100.00;102174.28;5157743;28;20057;-68
2021/03/19 04:28:56;;;;;;;19.60;8.68;;;;;;;0.52;100.00;102179.88;5160961;28;20573;-68
2021/03/19 04:31:27;;;;;;;28.30;10.10;;;;;;;0.47;100.00;102185.34;5158546;28;20018;-68
2021/03/19 04:33:58;;;;;;;17.95;8.77;;;;;;;0.38;100.00;102188.38;5149960;28;20435;-68
2021/03/19 04:36:46;;;;;;;21.67;8.70;;;;;;;0.32;100.00;102203.66;5160758;28;20105;-68
2021/03/19 04:39:25;;;;;;;25.05;9.48;;;;;;;0.28;100.00;102204.72;5161225;28;20026;-68
2021/03/19 04:41:59;;;;;;;19.40;9.13;;;;;;;0.28;100.00;102204.72;5148437;28;20056;-68
2021/03/19 04:44:34;;;;;;;23.65;9.05;;;;;;;0.27;100.00;102200.34;5160123;28;20560;-68
2021/03/19 04:47:06;;;;;;;25.95;9.40;;;;;;;0.23;100.00;102205.75;5160987;28;20123;-68
2021/03/19 04:49:37;;;;;;;34.83;9.32;;;;;;;0.21;100.00;102210.25;5160451;28;20037;-67
2021/03/19 04:52:08;;;;;;;21.08;9.45;;;;;;;0.15;100.00;102218.44;5160680;28;20026;-68
2021/03/19 04:54:38;;;;;;;27.30;9.57;;;;;;;0.07;100.00;102220.53;5160557;28;20479;-67
2021/03/19 04:57:10;;;;;;;20.77;10.27;;;;;;;-0.02;100.00;102227.06;5160213;28;20019;-68
2021/03/19 04:59:40;;;;;;;29.10;11.55;;;;;;;-0.01;100.00;102234.03;5160854;28;20038;-67
2021/03/19 05:02:11;;;;;;;26.85;10.75;;;;;;;-0.01;100.00;102230.56;5160319;28;20033;-68
2021/03/19 05:04:41;;;;;;;24.95;10.43;;;;;;;-0.04;100.00;102243.91;5147657;28;20087;-68
2021/03/19 05:07:12;;;;;;;29.10;11.45;;;;;;;-0.13;100.00;102252.19;5160534;28;20030;-68
2021/03/19 05:09:42;;;;;;;28.10;10.88;;;;;;;-0.13;100.00;102252.19;5159694;28;20106;-68
2021/03/19 05:12:13;;;;;;;31.23;10.68;;;;;;;-0.17;100.00;102261.13;5160225;28;20022;-67
2021/03/19 05:14:43;;;;;;;24.60;10.85;;;;;;;-0.10;100.00;102265.22;5160495;28;20026;-68
2021/03/19 05:17:14;;;;;;;30.80;11.40;;;;;;;-0.12;100.00;102253.88;5161276;28;20457;-68
2021/03/19 05:19:44;;;;;;;31.70;11.35;;;;;;;-0.08;100.00;102264.25;5160299;28;20407;-68
2021/03/19 05:22:15;;;;;;;34.33;12.98;;;;;;;-0.08;100.00;102260.75;5159366;28;20503;-68
2021/03/19 05:24:45;;;;;;;28.67;12.07;;;;;;;-0.07;100.00;102265.13;5159954;28;20026;-68
2021/03/19 05:27:16;;;;;;;28.63;12.18;;;;;;;-0.15;100.00;102264.56;5160329;28;20394;-68
2021/03/19 05:29:46;;;;;;;28.10;12.35;;;;;;;-0.17;100.00;102263.78;5159491;28;20390;-67
2021/03/19 05:32:17;;;;;;;31.77;12.10;;;;;;;-0.26;100.00;102272.91;5160111;28;20030;-67
2021/03/19 05:34:48;;;;;;;29.30;12.90;;;;;;;-0.24;100.00;102271.09;5159208;28;20566;-68
2021/03/19 05:37:20;;;;;;;30.35;12.18;;;;;;;-0.28;100.00;102283.53;5160199;28;20022;-68
2021/03/19 05:39:50;;;;;;;28.00;11.10;;;;;;;-0.24;100.00;102280.78;5159572;28;20073;-67
2021/03/19 05:42:26;;;;;;;33.38;12.57;;;;;;;-0.24;100.00;102292.19;5159824;28;20502;-68
2021/03/19 05:45:01;;;;;;;34.13;13.13;;;;;;;-0.27;100.00;102279.13;5159159;28;20544;-68
2021/03/19 05:47:31;;;;;;;32.33;12.35;;;;;;;-0.22;100.00;102276.28;5160352;28;20031;-67
2021/03/19 05:50:05;;;;;;;35.90;12.45;;;;;;;-0.20;100.00;102287.63;5159460;28;20363;-67
2021/03/19 05:52:36;;;;;;;30.27;13.63;;;;;;;-0.22;100.00;102274.50;5159655;28;20030;-68
2021/03/19 05:55:17;;;;;;;37.78;13.38;;;;;;;-0.21;100.00;102293.81;5159641;28;20364;-67
2021/03/19 05:57:48;;;;;;;35.35;13.45;;;;;;;-0.19;100.00;102302.56;5159706;28;20482;-67
2021/03/19 06:00:21;;;;;;;35.33;13.15;;;;;;;-0.22;100.00;102300.88;5159123;28;20097;-68
2021/03/19 06:02:52;;;;;;;38.63;13.63;;;;;;;-0.20;100.00;102300.81;5152877;28;20111;-67
2021/03/19 06:05:29;;;;;;;36.50;12.80;;;;;;;-0.17;100.00;102313.88;5152359;28;20023;-68
2021/03/19 06:08:02;;;;;;;36.17;14.40;;;;;;;-0.18;100.00;102310.41;5159356;28;20490;-67
2021/03/19 06:10:42;;;;;;;37.75;14.52;;;;;;;-0.17;100.00;102308.63;5158841;28;20022;-67
2021/03/19 06:13:23;;;;;;;32.67;13.88;;;;;;;-0.15;100.00;102319.94;5159878;28;20050;-67
2021/03/19 06:16:15;;;;;;;34.03;14.35;;;;;;;-0.15;100.00;102317.31;5146468;28;20027;-67
2021/03/19 06:18:50;;;;;;;31.70;13.57;;;;;;;-0.13;100.00;102326.03;5159285;28;20460;-67
2021/03/19 06:21:24;;;;;;;;;;;;;;;-0.18;100.00;102330.66;5159236;28;20390;-67
2021/03/19 06:24:20;;;;;;;33.38;14.68;;;;;;;-0.26;100.00;102326.50;5159275;28;19959;-67
2021/03/19 06:26:53;;;;;;;31.60;14.25;;;;;;;-0.15;100.00;102330.50;5158598;28;20450;-68
2021/03/19 06:29:24;;;;;;;35.28;14.77;;;;;;;-0.07;100.00;102338.97;5157759;28;20034;-68
2021/03/19 06:32:14;;;;;;;33.03;14.18;;;;;;;-0.03;100.00;102340.59;5158954;28;20031;-67
2021/03/19 06:35:06;;;;;;;36.65;13.52;;;;;;;0.02;100.00;102337.75;5158760;28;20041;-68
2021/03/19 06:37:47;;;;;;;34.80;14.77;;;;;;;0.08;100.00;102338.38;5159323;28;20023;-68
2021/03/19 06:40:32;;;;;;;33.17;13.55;;;;;;;0.13;100.00;102341.66;5158542;28;20533;-67
2021/03/19 06:43:11;;;;;;;33.78;13.00;;;;;;;0.21;100.00;102357.22;5159266;28;20495;-67
2021/03/19 06:45:42;;;;;;;35.05;13.27;;;;;;;0.25;100.00;102356.13;5158157;28;20135;-67
2021/03/19 06:48:31;;;;;;;30.92;13.77;;;;;;;0.33;100.00;102348.78;5159340;28;20525;-67
2021/03/19 06:51:02;;;;;;;30.13;13.02;;;;;;;0.36;100.00;102353.94;5157368;28;20030;-67
2021/03/19 06:53:33;;;;;;;29.63;12.20;;;;;;;0.44;100.00;102358.88;5159090;28;20046;-67
2021/03/19 06:56:14;;;;;;;30.13;11.77;;;;;;;0.50;100.00;102358.63;5157999;28;20054;-67
2021/03/19 06:58:48;;;;;;;23.45;11.57;;;;;;;0.54;100.00;102360.22;5159176;28;20030;-67
2021/03/19 07:01:33;;;;;;;28.23;11.68;;;;;;;0.62;100.00;102366.03;5158372;28;20022;-67
2021/03/19 07:04:15;;;;;;;25.80;10.75;;;;;;;0.65;100.00;102360.63;5147216;28;20030;-67
2021/03/19 07:06:56;;;;;;;30.75;11.10;;;;;;;0.72;100.00;102364.72;5158839;28;20122;-67
2021/03/19 07:09:45;;;;;;;27.70;11.52;;;;;;;0.79;100.00;102373.22;5146582;28;20022;-66
2021/03/19 07:12:39;;;;;;;36.05;11.15;;;;;;;0.89;100.00;102378.97;5157938;28;20402;-68
2021/03/19 07:15:24;;;;;;;24.30;10.02;;;;;;;0.95;100.00;102378.72;5158647;28;20348;-68
2021/03/19 07:18:16;;;;;;;26.88;10.40;;;;;;;1.01;100.00;102381.97;5158921;28;20486;-68
2021/03/19 07:20:54;;;;;;;23.45;10.70;;;;;;;1.10;100.00;102393.03;5157519;28;20058;-68
2021/03/19 07:23:30;;;;;;;24.90;10.13;;;;;;;1.19;100.00;102392.63;5158225;28;20033;-68
2021/03/19 07:26:12;;;;;;;23.45;10.10;;;;;;;1.24;100.00;102398.56;5158308;28;20449;-68
2021/03/19 07:28:50;;;;;;;22.50;10.27;;;;;;;1.34;100.00;102391.09;5158224;28;20026;-68
2021/03/19 07:31:40;;;;;;;29.88;9.55;;;;;;;1.45;100.00;102402.03;5156750;28;20026;-68
2021/03/19 07:34:26;;;;;;;20.42;9.02;;;;;;;1.52;100.00;102409.66;5158383;28;20030;-68
2021/03/19 07:37:18;;;;;;;21.17;8.27;;;;;;;1.63;100.00;102414.44;5145504;28;20383;-68
2021/03/19 07:39:57;;;;;;;22.15;8.23;;;;;;;1.74;100.00;102417.44;5157612;28;20076;-68
2021/03/19 07:42:52;;;;;;;19.00;9.07;;;;;;;1.85;100.00;102409.00;5157716;28;20037;-68
2021/03/19 07:45:33;;;;;;;19.05;8.35;;;;;;;1.91;100.00;102421.97;5147673;28;20411;-68
2021/03/19 07:48:11;;;;;;;14.30;7.22;;;;;;;1.96;100.00;102406.72;5157970;28;20108;-68
2021/03/19 07:50:52;;;;;;;19.75;7.97;;;;;;;2.06;100.00;102433.63;5157204;28;20113;-68
2021/03/19 07:53:43;;;;;;;21.65;7.70;;;;;;;2.19;100.00;102434.75;5158114;28;20030;-69
2021/03/19 07:56:30;;;;;;;19.83;7.85;;;;;;;2.32;100.00;102438.53;5157218;28;20615;-69
2021/03/19 07:59:17;;;;;;;16.98;7.45;;;;;;;2.50;100.00;102443.84;5157743;28;20027;-68
2021/03/19 08:02:14;;;;;;;17.67;6.35;;;;;;;2.60;100.00;102442.47;5158528;28;20079;-69
2021/03/19 08:05:13;;;;;;;11.98;5.20;;;;;;;2.68;100.00;102448.25;5149538;28;20014;-69
2021/03/19 08:07:48;;;;;;;12.20;4.82;;;;;;;2.77;100.00;102444.28;5156205;28;20027;-69
2021/03/19 08:10:29;;;;;;;11.98;6.13;;;;;;;2.85;100.00;102450.91;5159206;28;20403;-69
2021/03/19 08:13:23;;;;;;;18.65;6.03;;;;;;;2.99;100.00;102452.00;5159471;28;20468;-69
2021/03/19 08:16:05;;;;;;;11.68;4.82;;;;;;;3.05;100.00;102447.22;5147065;28;20026;-69
2021/03/19 08:18:47;;;;;;;11.10;5.18;;;;;;;3.19;100.00;102462.44;5158964;28;20092;-69
2021/03/19 08:21:26;;;;;;;10.52;4.82;;;;;;;3.30;100.00;102461.88;5159088;28;20026;-69
2021/03/19 08:24:27;;;;;;;10.48;5.38;;;;;;;3.36;100.00;102459.78;5147100;28;20038;-69
2021/03/19 08:27:34;;;;;;;14.98;4.80;;;;;;;3.50;100.00;102464.34;5157958;28;20398;-68
2021/03/19 08:30:11;;;;;;;8.90;3.92;;;;;;;3.58;100.00;102463.97;5159649;28;20113;-68
2021/03/19 08:32:52;;;;;;;8.07;4.05;;;;;;;3.65;100.00;102473.28;5159305;28;20037;-68
2021/03/19 08:35:31;;;;;;;8.23;4.15;;;;;;;3.71;100.00;102470.31;5146492;28;20095;-68
2021/03/19 08:38:12;;;;;;;8.82;3.58;;;;;;;3.76;100.00;102478.88;5158462;28;20517;-68
2021/03/19 08:40:49;;;;;;;12.93;3.70;;;;;;;3.79;100.00;102464.59;5159235;28;20042;-68
2021/03/19 08:43:28;;;;;;;14.63;4.07;;;;;;;3.82;100.00;102469.75;5159360;28;20506;-68
2021/03/19 08:46:18;;;;;;;7.70;3.13;;;;;;;3.88;100.00;102482.69;5158763;28;20030;-68
2021/03/19 08:48:58;;;;;;;13.60;4.45;;;;;;;4.02;100.00;102489.91;5159568;28;20042;-68
2021/03/19 08:51:29;;;;;;;10.27;4.22;;;;;;;4.10;100.00;102499.16;5158516;28;20114;-68
2021/03/19 08:54:07;;;;;;;8.60;3.63;;;;;;;4.27;100.00;102494.72;5159261;28;20486;-68
2021/03/19 08:56:40;;;;;;;10.60;4.32;;;;;;;4.44;100.00;102496.44;5157190;28;20034;-69
2021/03/19 08:59:30;;;;;;;5.82;3.63;;;;;;;4.60;100.00;102489.31;5159048;28;20034;-68
2021/03/19 09:02:17;;;;;;;6.93;2.97;;;;;;;4.63;100.00;102505.09;5158561;28;20030;-68
2021/03/19 09:04:52;;;;;;;6.57;2.97;;;;;;;4.59;100.00;102504.41;5148220;28;20468;-69
2021/03/19 09:07:33;;;;;;;9.40;2.83;;;;;;;4.73;100.00;102505.41;5158283;28;20065;-68
2021/03/19 09:10:07;;;;;;;7.00;2.92;;;;;;;4.81;100.00;102512.00;5159142;28;20536;-68
2021/03/19 09:12:56;;;;;;;5.18;2.55;;;;;;;4.88;100.00;102517.84;5150932;28;20031;-68
2021/03/19 09:15:32;;;;;;;5.90;2.55;;;;;;;4.90;100.00;102518.59;5154711;28;20394;-68
2021/03/19 09:18:07;;;;;;;7.47;2.10;;;;;;;4.93;100.00;102519.28;5147399;28;20073;-68
2021/03/19 09:20:37;;;;;;;3.22;1.67;;;;;;;5.04;100.00;102509.81;5157916;28;20101;-68
2021/03/19 09:23:14;;;;;;;6.35;3.22;;;;;;;4.98;100.00;102488.91;5158801;28;20126;-68
2021/03/19 09:26:31;;;;;;;7.60;2.83;;;;;;;4.98;100.00;102515.50;5158018;28;20030;-68
2021/03/19 09:29:21;;;;;;;8.15;2.03;;;;;;;5.16;100.00;102523.25;5147348;28;20026;-68
2021/03/19 09:31:56;;;;;;;8.30;2.67;;;;;;;5.27;100.00;102514.66;5157883;28;20041;-67
2021/03/19 09:34:30;;;;;;;4.20;2.03;;;;;;;5.29;100.00;102517.22;5158776;28;20028;-68
2021/03/19 09:37:11;;;;;;;5.78;3.08;;;;;;;5.39;100.00;102535.19;5158248;28;20042;-68
2021/03/19 09:39:53;;;;;;;7.03;2.20;;;;;;;5.43;100.00;102536.72;5158839;28;20026;-67
2021/03/19 09:42:24;;;;;;;2.90;1.67;;;;;;;5.56;100.00;102533.31;5157501;28;20022;-68
2021/03/19 09:45:00;;;;;;;4.30;2.00;;;;;;;5.62;100.00;102539.16;5158009;28;20041;-67
2021/03/19 09:47:40;;;;;;;2.42;1.52;;;;;;;5.65;100.00;102535.44;5157710;28;20030;-68
2021/03/19 09:50:20;;;;;;;5.60;1.58;;;;;;;5.73;100.00;102527.84;5158537;28;20032;-67
2021/03/19 09:52:58;;;;;;;4.25;1.77;;;;;;;5.85;100.00;102528.88;5157641;28;20030;-68
2021/03/19 09:55:39;;;;;;;4.85;1.52;;;;;;;5.88;100.00;102528.72;5157860;28;20030;-68
2021/03/19 09:58:22;;;;;;;4.45;1.50;;;;;;;5.94;93.81;102523.88;5146218;28;20042;-67
2021/03/19 10:00:58;;;;;;;8.27;1.60;;;;;;;6.07;100.00;102537.28;5157705;28;20026;-68
2021/03/19 10:03:41;;;;;;;9.55;2.00;;;;;;;6.24;100.00;102541.56;5157580;28;20505;-68
2021/03/19 10:06:25;;;;;;;5.88;1.88;;;;;;;6.24;81.05;102536.22;5145726;28;20437;-69
2021/03/19 10:09:08;;;;;;;6.03;1.90;;;;;;;6.30;82.27;102543.84;5157455;28;20454;-68
2021/03/19 10:11:59;;;;;;;4.57;1.75;;;;;;;6.20;86.81;102545.38;5157453;28;20391;-69
2021/03/19 10:14:35;;;;;;;4.63;1.73;;;;;;;6.32;90.03;102555.25;5146795;28;20030;-68
2021/03/19 10:17:12;;;;;;;4.25;1.92;;;;;;;6.39;74.63;102545.91;5157457;28;20071;-68
2021/03/19 10:19:46;;;;;;;5.82;2.05;;;;;;;6.47;86.48;102558.75;5158003;28;20034;-68
2021/03/19 10:22:30;;;;;;;4.78;2.13;;;;;;;6.55;84.21;102548.47;5157872;28;20041;-68
2021/03/19 10:25:25;;;;;;;6.80;1.90;;;;;;;6.52;71.96;102550.47;5156109;28;20026;-68
2021/03/19 10:27:59;;;;;;;3.75;1.80;;;;;;;6.49;80.80;102556.84;5157903;28;20399;-68
2021/03/19 10:30:38;;;;;;;9.00;2.55;;;;;;;6.55;84.25;102560.94;5156273;28;20026;-68
2021/03/19 10:33:14;;;;;;;5.15;1.88;;;;;;;6.74;78.58;102561.47;5144798;28;20064;-68
2021/03/19 10:35:50;;;;;;;7.28;2.47;;;;;;;6.82;74.63;102559.13;5157389;28;20022;-68
2021/03/19 10:38:33;;;;;;;4.00;2.10;;;;;;;6.63;82.35;102561.31;5157694;28;20483;-68
2021/03/19 10:41:23;;;;;;;12.10;5.45;;;;;;;6.54;79.63;102560.09;5157017;28;20046;-69
2021/03/19 10:44:03;;;;;;;4.60;2.40;;;;;;;6.72;84.23;102568.69;5157669;28;20037;-68
2021/03/19 10:46:41;;;;;;;7.30;2.25;;;;;;;6.81;73.41;102565.44;5157234;28;20320;-68
2021/03/19 10:49:18;;;;;;;8.40;2.15;;;;;;;6.90;86.22;102562.19;5156722;28;20652;-68
2021/03/19 10:52:00;;;;;;;5.97;1.80;;;;;;;6.79;66.07;102570.03;5157400;28;20023;-68
2021/03/19 10:54:37;;;;;;;4.47;2.05;;;;;;;6.59;65.64;102579.31;5157034;28;20034;-69
2021/03/19 10:57:21;;;;;;;4.32;2.00;;;;;;;6.57;72.72;102575.03;5156870;28;20041;-68
2021/03/19 10:59:53;;;;;;;6.72;2.10;;;;;;;6.68;65.50;102572.53;5156999;28;20083;-68
2021/03/19 11:02:27;;;;;;;3.83;2.20;;;;;;;6.82;75.76;102585.81;5155318;28;20026;-68
2021/03/19 11:04:58;;;;;;;8.98;2.30;;;;;;;6.94;76.88;102582.38;5147029;28;20026;-68
2021/03/19 11:07:34;;;;;;;5.25;2.20;;;;;;;7.09;77.90;102588.50;5156992;28;20038;-69
2021/03/19 11:10:07;;;;;;;5.00;2.33;;;;;;;7.20;77.78;102582.47;5156207;28;20026;-68
2021/03/19 11:12:45;;;;;;;3.55;2.42;;;;;;;7.41;71.28;102583.69;5144985;28;20101;-68
2021/03/19 11:15:21;;;;;;;6.78;2.47;;;;;;;7.45;78.36;102584.34;5156629;28;20049;-68
2021/03/19 11:18:23;;;;;;;5.25;2.42;;;;;;;7.63;79.71;102587.56;5157018;28;20030;-68
2021/03/19 11:21:06;;;;;;;3.88;2.20;;;;;;;7.66;80.43;102595.38;5153669;28;20030;-81
2021/03/19 11:23:38;;;;;;;7.45;2.00;;;;;;;7.50;67.40;102576.88;5181160;28;20049;-69
2021/03/19 11:26:20;;;;;;;6.38;1.77;;;;;;;7.27;58.31;102589.94;5176065;28;20035;-69
2021/03/19 11:29:19;;;;;;;3.85;2.40;;;;;;;7.34;66.14;102608.25;5144681;28;20030;-67
2021/03/19 11:31:55;;;;;;;9.20;2.38;;;;;;;7.33;61.90;102607.38;5158710;28;20576;-69
2021/03/19 11:34:35;;;;;;;4.40;2.25;;;;;;;7.47;62.11;102609.13;5158247;28;20060;-68
2021/03/19 11:37:13;;;;;;;10.13;2.50;;;;;;;7.46;63.93;102602.91;5155863;28;20022;-68
2021/03/19 11:39:52;;;;;;;6.03;2.15;;;;;;;7.61;64.49;102611.72;5156825;28;20087;-67
2021/03/19 11:42:26;;;;;;;5.72;2.47;;;;;;;7.70;62.89;102608.41;5156766;28;20030;-67
2021/03/19 11:45:00;;;;;;;4.23;1.83;;;;;;;7.77;58.01;102612.38;5156230;28;20631;-68
2021/03/19 11:47:34;;;;;;;3.75;1.63;;;;;;;7.75;65.40;102605.44;5155680;28;20069;-67
2021/03/19 11:50:29;;;;;;;4.00;2.00;;;;;;;7.83;58.82;102608.44;5156380;28;20367;-68
2021/03/19 11:53:10;;;;;;;7.45;2.22;;;;;;;8.04;65.36;102603.44;5156727;28;20034;-68
2021/03/19 11:55:45;;;;;;;6.65;2.08;;;;;;;8.22;62.67;102598.59;5155910;28;20019;-68
2021/03/19 11:58:18;;;;;;;7.00;2.47;;;;;;;8.31;55.98;102604.16;5154979;28;20033;-68
2021/03/19 12:00:49;;;;;;;4.03;2.17;;;;;;;8.29;56.21;102608.75;5155517;28;20037;-66
2021/03/19 12:03:33;;;;;;;4.13;2.45;;;;;;;8.47;69.69;102606.63;5156406;28;20026;-67
2021/03/19 12:06:05;;;;;;;4.82;2.53;;;;;;;8.41;57.63;102607.06;5155455;28;20351;-68
2021/03/19 12:08:38;;;;;;;5.13;2.35;;;;;;;8.36;56.96;102601.19;5155624;28;20031;-68
2021/03/19 12:11:16;;;;;;;7.82;2.60;;;;;;;8.25;58.94;102588.53;5155483;28;20027;-67